createdAt,value
2022-11-28T00:00:50.118Z,53.2
2022-11-28T00:01:57.473Z,59
2022-11-28T00:03:04.510Z,55
2022-11-28T00:04:11.552Z,55.6
2022-11-28T00:05:18.750Z,52.1
2022-11-28T00:06:25.944Z,55.4
2022-11-28T00:07:33.301Z,55.1
2022-11-28T00:08:40.576Z,51.6
2022-11-28T00:09:47.448Z,51.6
2022-11-28T00:10:54.414Z,53.6
2022-11-28T00:12:01.561Z,52
2022-11-28T00:13:08.740Z,54.5
2022-11-28T00:14:15.860Z,52.7
2022-11-28T00:15:22.945Z,51.5
2022-11-28T00:16:30.304Z,55.7
2022-11-28T00:17:37.328Z,55.7
2022-11-28T00:18:45.416Z,52.8
2022-11-28T00:19:55.480Z,53.1
2022-11-28T00:21:02.636Z,53.7
2022-11-28T00:22:09.888Z,54.4
2022-11-28T00:23:16.977Z,55.6
2022-11-28T00:24:24.049Z,54
2022-11-28T00:25:31.192Z,48.7
2022-11-28T00:26:38.569Z,55.2
2022-11-28T00:27:45.726Z,53.3
2022-11-28T00:28:53.099Z,49.2
2022-11-28T00:30:00.135Z,49.8
2022-11-28T00:31:07.326Z,51.2
2022-11-28T00:32:17.113Z,51.5
2022-11-28T00:33:24.111Z,49.7
2022-11-28T00:34:31.296Z,53.3
2022-11-28T00:35:38.552Z,53.2
2022-11-28T00:36:45.673Z,51.2
2022-11-28T00:37:52.579Z,50
2022-11-28T00:38:59.720Z,51.7
2022-11-28T00:40:06.880Z,51.4
2022-11-28T00:41:14.088Z,51.8
2022-11-28T00:42:21.430Z,48.9
2022-11-28T00:43:28.424Z,51.4
2022-11-28T00:44:35.556Z,51.3
2022-11-28T00:45:42.697Z,47
2022-11-28T00:46:49.695Z,50.8
2022-11-28T00:47:56.995Z,52.3
2022-11-28T00:49:04.040Z,55.6
2022-11-28T00:50:11.121Z,65.1
2022-11-28T00:51:18.304Z,72
2022-11-28T00:52:25.456Z,61.1
2022-11-28T00:53:32.648Z,57.9
2022-11-28T00:54:40.341Z,58.3
2022-11-28T00:55:46.964Z,59.1
2022-11-28T00:56:54.081Z,56.8
2022-11-28T00:58:07.078Z,57
2022-11-28T00:59:08.231Z,57.8
2022-11-28T01:00:15.111Z,58
2022-11-28T01:01:22.497Z,56.9
2022-11-28T01:02:29.486Z,59.7
2022-11-28T01:03:36.444Z,57.1
2022-11-28T01:04:43.895Z,60.5
2022-11-28T01:05:50.733Z,60.9
2022-11-28T01:06:58.032Z,59.3
2022-11-28T01:08:05.048Z,58.3
2022-11-28T01:09:12.090Z,56.5
2022-11-28T01:10:19.344Z,59
2022-11-28T01:11:26.320Z,59.8
2022-11-28T01:12:33.548Z,63.2
2022-11-28T01:13:40.746Z,60.2
2022-11-28T01:14:47.917Z,59.2
2022-11-28T01:15:55.112Z,57.2
2022-11-28T01:17:02.149Z,62.4
2022-11-28T01:18:09.287Z,61.3
2022-11-28T01:19:16.416Z,59.6
2022-11-28T01:20:23.496Z,58.8
2022-11-28T01:21:30.493Z,62.3
2022-11-28T01:22:37.461Z,62.3
2022-11-28T01:23:44.464Z,61.1
2022-11-28T01:24:51.495Z,64.6
2022-11-28T01:25:58.487Z,58.2
2022-11-28T01:27:05.404Z,62.8
2022-11-28T01:28:12.409Z,59.8
2022-11-28T01:29:19.396Z,63.5
2022-11-28T01:30:32.539Z,63.1
2022-11-28T01:31:33.907Z,65.6
2022-11-28T01:32:40.852Z,60.5
2022-11-28T01:33:48.159Z,59.4
2022-11-28T01:34:56.028Z,57.5
2022-11-28T01:36:03.249Z,57.6
2022-11-28T01:37:10.445Z,56.1
2022-11-28T01:38:17.551Z,57.8
2022-11-28T01:39:24.644Z,60.1
2022-11-28T01:40:31.902Z,56.9
2022-11-28T01:41:39.012Z,56.6
2022-11-28T01:42:46.100Z,55.9
2022-11-28T01:43:53.168Z,56.7
2022-11-28T01:45:05.420Z,58.8
2022-11-28T01:46:17.656Z,57.9
2022-11-28T01:47:24.980Z,57.7
2022-11-28T01:48:32.264Z,61.5
2022-11-28T01:49:39.281Z,54.2
2022-11-28T01:50:46.300Z,57.3
2022-11-28T01:51:53.303Z,56.1
2022-11-28T01:53:00.622Z,58.1
2022-11-28T01:54:07.655Z,56.6
2022-11-28T01:55:14.993Z,55.3
2022-11-28T01:56:21.928Z,55.5
2022-11-28T01:57:29.087Z,58.8
2022-11-28T01:58:36.248Z,58
2022-11-28T01:59:43.373Z,58.9
2022-11-28T02:00:50.686Z,58.6
2022-11-28T02:01:57.610Z,58.1
2022-11-28T02:03:04.873Z,59.7
2022-11-28T02:04:12.912Z,61
2022-11-28T02:05:20.048Z,60.1
2022-11-28T02:06:27.256Z,56.3
2022-11-28T02:07:34.517Z,58.8
2022-11-28T02:08:41.519Z,58.2
2022-11-28T02:09:48.696Z,57.3
2022-11-28T02:10:55.688Z,55.8
2022-11-28T02:12:13.319Z,56.8
2022-11-28T02:13:25.818Z,57.8
2022-11-28T02:14:38.067Z,56.2
2022-11-28T02:15:45.240Z,56.5
2022-11-28T02:16:57.244Z,57.6
2022-11-28T02:18:12.708Z,57.9
2022-11-28T02:19:24.994Z,58.6
2022-11-28T02:20:42.180Z,55.5
2022-11-28T02:21:51.699Z,55.7
2022-11-28T02:23:01.903Z,61
2022-11-28T02:24:19.291Z,58.8
2022-11-28T02:25:36.672Z,57.6
2022-11-28T02:26:51.830Z,59.9
2022-11-28T02:28:09.063Z,59
2022-11-28T02:29:16.471Z,60.5
2022-11-28T02:30:23.407Z,58.2
2022-11-28T02:31:33.245Z,59.8
2022-11-28T02:32:50.741Z,58.5
2022-11-28T02:34:00.759Z,57.1
2022-11-28T02:35:07.575Z,60
2022-11-28T02:36:22.910Z,58.2
2022-11-28T02:37:38.341Z,58.5
2022-11-28T02:38:55.919Z,55.6
2022-11-28T02:40:03.005Z,57.3
2022-11-28T02:41:10.083Z,59.6
2022-11-28T02:42:22.355Z,60.4
2022-11-28T02:43:32.296Z,56.6
2022-11-28T02:44:39.435Z,63.5
2022-11-28T02:45:46.277Z,58.5
2022-11-28T02:47:01.190Z,59.8
2022-11-28T02:48:18.452Z,59.8
2022-11-28T02:49:30.825Z,59.5
2022-11-28T02:50:40.243Z,58.6
2022-11-28T02:51:57.647Z,58.6
2022-11-28T02:53:04.692Z,59.2
2022-11-28T02:54:11.836Z,57.3
2022-11-28T02:55:18.831Z,57.3
2022-11-28T02:56:26.131Z,58.4
2022-11-28T02:57:33.119Z,58.7
2022-11-28T02:58:40.171Z,58.5
2022-11-28T02:59:47.275Z,57.5
2022-11-28T03:00:54.387Z,58.4
2022-11-28T03:02:01.686Z,56.7
2022-11-28T03:03:08.561Z,57.2
2022-11-28T03:04:26.107Z,57.8
2022-11-28T03:05:43.660Z,61.1
2022-11-28T03:07:00.855Z,57.6
2022-11-28T03:08:15.655Z,60
2022-11-28T03:09:22.595Z,58.7
2022-11-28T03:10:29.536Z,58
2022-11-28T03:11:47.047Z,57.3
2022-11-28T03:12:59.839Z,57.9
2022-11-28T03:14:15.135Z,61.3
2022-11-28T03:15:24.767Z,59
2022-11-28T03:16:34.680Z,58
2022-11-28T03:17:49.455Z,59.8
2022-11-28T03:18:56.477Z,55.7
2022-11-28T03:20:08.676Z,55.7
2022-11-28T03:21:21.169Z,54.9
2022-11-28T03:22:33.219Z,59.1
2022-11-28T03:23:48.181Z,58.1
2022-11-28T03:24:55.735Z,54.7
2022-11-28T03:26:05.664Z,60.9
2022-11-28T03:27:23.055Z,55.6
2022-11-28T03:28:38.157Z,60
2022-11-28T03:29:52.604Z,55.1
2022-11-28T03:30:59.639Z,56.4
2022-11-28T03:32:06.702Z,55.1
2022-11-28T03:33:13.667Z,54.2
2022-11-28T03:34:20.840Z,55.8
2022-11-28T03:35:27.811Z,56.9
2022-11-28T03:36:34.972Z,54.5
2022-11-28T03:37:41.759Z,55.9
2022-11-28T03:38:48.807Z,53.4
2022-11-28T03:40:00.950Z,55.3
2022-11-28T03:41:10.915Z,55
2022-11-28T03:42:17.947Z,51.9
2022-11-28T03:43:24.993Z,52
2022-11-28T03:44:31.975Z,55.8
2022-11-28T03:45:38.883Z,53.5
2022-11-28T03:46:48.907Z,53.3
2022-11-28T03:47:55.848Z,55.3
2022-11-28T03:49:05.600Z,56.5
2022-11-28T03:50:12.620Z,53.3
2022-11-28T03:51:22.615Z,54.7
2022-11-28T03:52:35.423Z,55.5
2022-11-28T03:53:42.315Z,55.4
2022-11-28T03:54:52.539Z,52.2
2022-11-28T03:56:02.437Z,56.2
2022-11-28T03:57:14.615Z,54.5
2022-11-28T03:58:31.948Z,55.8
2022-11-28T03:59:46.824Z,55.5
2022-11-28T04:00:53.802Z,56.7
2022-11-28T04:02:00.816Z,56.6
2022-11-28T04:03:13.062Z,56.2
2022-11-28T04:04:20.119Z,56.8
2022-11-28T04:05:32.255Z,55.8
2022-11-28T04:06:44.476Z,55.2
2022-11-28T04:07:56.819Z,55.4
2022-11-28T04:09:12.960Z,54.9
2022-11-28T04:10:15.876Z,56.7
2022-11-28T04:11:30.930Z,59.3
2022-11-28T04:12:40.963Z,55.7
2022-11-28T04:13:53.094Z,55.1
2022-11-28T04:15:08.463Z,53.6
2022-11-28T04:16:21.484Z,53.3
2022-11-28T04:17:33.630Z,55.5
2022-11-28T04:18:40.666Z,53.3
2022-11-28T04:19:55.756Z,52.5
2022-11-28T04:21:02.712Z,54.4
2022-11-28T04:22:12.935Z,54.3
2022-11-28T04:23:20.112Z,55.9
2022-11-28T04:24:27.141Z,53.4
2022-11-28T04:25:40.132Z,54.8
2022-11-28T04:26:47.091Z,54
2022-11-28T04:27:54.084Z,52.7
2022-11-28T04:29:01.049Z,55.7
2022-11-28T04:30:07.972Z,56.9
2022-11-28T04:31:15.134Z,52.7
2022-11-28T04:32:22.287Z,48.8
2022-11-28T04:33:29.187Z,51.6
2022-11-28T04:34:37.126Z,55.1
2022-11-28T04:35:44.137Z,51.3
2022-11-28T04:36:51.107Z,51
2022-11-28T04:37:58.152Z,51.1
2022-11-28T04:39:05.329Z,47.7
2022-11-28T04:40:12.267Z,48.3
2022-11-28T04:41:19.283Z,51.8
2022-11-28T04:42:26.482Z,47.9
2022-11-28T04:43:33.527Z,50.1
2022-11-28T04:44:40.996Z,49.4
2022-11-28T04:45:50.178Z,45.3
2022-11-28T04:46:57.199Z,49.2
2022-11-28T04:48:04.181Z,46.6
2022-11-28T04:49:11.175Z,48.2
2022-11-28T04:50:18.151Z,48
2022-11-28T04:51:25.234Z,50.3
2022-11-28T04:52:37.368Z,47.8
2022-11-28T04:53:52.352Z,49.2
2022-11-28T04:55:04.911Z,45.1
2022-11-28T04:56:22.141Z,47.3
2022-11-28T04:57:29.011Z,48
2022-11-28T04:58:36.815Z,50.2
2022-11-28T04:59:43.943Z,51.3
2022-11-28T05:00:50.935Z,49.6
2022-11-28T05:01:57.907Z,52.6
2022-11-28T05:03:04.839Z,52.5
2022-11-28T05:04:11.803Z,50.6
2022-11-28T05:05:18.995Z,53.7
2022-11-28T05:06:25.878Z,50.2
2022-11-28T05:07:32.918Z,52
2022-11-28T05:08:39.826Z,55.1
2022-11-28T05:09:46.824Z,53.3
2022-11-28T05:10:54.071Z,56.9
2022-11-28T05:12:00.927Z,53.7
2022-11-28T05:13:08.030Z,56.5
2022-11-28T05:14:15.028Z,55.2
2022-11-28T05:15:22.012Z,53.1
2022-11-28T05:16:29.087Z,53
2022-11-28T05:17:40.613Z,53.3
2022-11-28T05:18:43.271Z,52.2
2022-11-28T05:19:50.271Z,52.4
2022-11-28T05:20:57.244Z,51.7
2022-11-28T05:22:04.191Z,49.5
2022-11-28T05:23:11.223Z,51.3
2022-11-28T05:24:18.450Z,47.6
2022-11-28T05:25:25.391Z,50.3
2022-11-28T05:26:32.520Z,47.8
2022-11-28T05:27:39.430Z,48.7
2022-11-28T05:28:46.479Z,51.3
2022-11-28T05:29:53.494Z,48.1
2022-11-28T05:31:00.426Z,49.1
2022-11-28T05:32:07.463Z,49
2022-11-28T05:33:14.539Z,48.7
2022-11-28T05:34:21.511Z,48.8
2022-11-28T05:35:28.600Z,48.2
2022-11-28T05:36:36.400Z,48
2022-11-28T05:37:43.313Z,47
2022-11-28T05:38:50.316Z,46.6
2022-11-28T05:39:57.307Z,49.6
2022-11-28T05:41:04.359Z,47.2
2022-11-28T05:42:11.629Z,45.5
2022-11-28T05:43:18.459Z,49.9
2022-11-28T05:44:26.957Z,50.1
2022-11-28T05:45:32.400Z,50
2022-11-28T05:46:39.647Z,47.5
2022-11-28T05:47:46.682Z,48.2
2022-11-28T05:48:53.632Z,45.2
2022-11-28T05:50:00.740Z,46.7
2022-11-28T05:51:08.162Z,48.3
2022-11-28T05:52:15.110Z,48.3
2022-11-28T05:53:22.187Z,44.8
2022-11-28T05:54:29.328Z,47.8
2022-11-28T05:55:36.346Z,45.7
2022-11-28T05:56:43.296Z,45
2022-11-28T05:57:50.314Z,49.2
2022-11-28T05:58:57.172Z,46.9
2022-11-28T06:00:04.287Z,45.8
2022-11-28T06:01:11.330Z,48.4
2022-11-28T06:02:18.504Z,47.9
2022-11-28T06:03:25.691Z,48.1
2022-11-28T06:04:32.865Z,54.1
2022-11-28T06:05:43.037Z,50.1
2022-11-28T06:06:47.048Z,54.2
2022-11-28T06:07:54.088Z,51.5
2022-11-28T06:09:03.255Z,49.1
2022-11-28T06:10:10.487Z,52.7
2022-11-28T06:11:17.538Z,53.8
2022-11-28T06:12:24.887Z,50.8
2022-11-28T06:13:31.995Z,52.7
2022-11-28T06:14:38.946Z,52
2022-11-28T06:15:46.063Z,51.4
2022-11-28T06:16:53.197Z,50
2022-11-28T06:18:00.355Z,51.8
2022-11-28T06:19:07.647Z,52.4
2022-11-28T06:20:14.574Z,54.2
2022-11-28T06:21:21.693Z,52.4
2022-11-28T06:22:28.927Z,55.1
2022-11-28T06:23:36.018Z,55.8
2022-11-28T06:24:43.195Z,53.6
2022-11-28T06:25:50.338Z,50
2022-11-28T06:26:57.363Z,53.7
2022-11-28T06:28:04.503Z,48.3
2022-11-28T06:29:11.539Z,48.9
2022-11-28T06:30:18.400Z,53.2
2022-11-28T06:31:25.553Z,53.8
2022-11-28T06:32:32.802Z,50.4
2022-11-28T06:33:39.842Z,52.9
2022-11-28T06:34:46.750Z,50.8
2022-11-28T06:35:53.675Z,51.5
2022-11-28T06:37:03.370Z,61.9
2022-11-28T06:38:14.184Z,54
2022-11-28T06:39:17.299Z,53
2022-11-28T06:40:24.367Z,54.7
2022-11-28T06:41:31.274Z,69.4
2022-11-28T06:42:38.209Z,68.6
2022-11-28T06:43:45.227Z,67.4
2022-11-28T06:44:52.410Z,60
2022-11-28T06:45:59.432Z,55.8
2022-11-28T06:47:06.402Z,52.9
2022-11-28T06:48:14.287Z,52.7
2022-11-28T06:49:21.270Z,49.7
2022-11-28T06:50:28.326Z,49.6
2022-11-28T06:51:35.908Z,50.4
2022-11-28T06:52:42.943Z,49.3
2022-11-28T06:53:49.931Z,47
2022-11-28T06:54:56.906Z,48
2022-11-28T06:56:03.906Z,51
2022-11-28T06:57:11.059Z,48
2022-11-28T06:58:18.244Z,47.2
2022-11-28T06:59:25.334Z,48.6
2022-11-28T07:00:32.797Z,46.8
2022-11-28T07:01:39.684Z,43.8
2022-11-28T07:02:46.721Z,44.4
2022-11-28T07:03:53.750Z,47.4
2022-11-28T07:05:00.774Z,43.2
2022-11-28T07:06:07.919Z,42.6
2022-11-28T07:07:16.598Z,43.5
2022-11-28T07:08:21.929Z,47.7
2022-11-28T07:09:28.889Z,44.7
2022-11-28T07:10:35.947Z,43.8
2022-11-28T07:11:42.930Z,47.1
2022-11-28T07:12:50.033Z,43.6
2022-11-28T07:13:57.102Z,45.5
2022-11-28T07:15:04.270Z,44.9
2022-11-28T07:16:11.763Z,44.1
2022-11-28T07:17:21.669Z,48.7
2022-11-28T07:18:28.838Z,44.2
2022-11-28T07:19:35.956Z,46.5
2022-11-28T07:20:43.058Z,44.2
2022-11-28T07:21:50.275Z,43.1
2022-11-28T07:22:57.250Z,45
2022-11-28T07:24:04.581Z,44
2022-11-28T07:25:11.554Z,45.1
2022-11-28T07:26:18.732Z,48.8
2022-11-28T07:27:25.886Z,47
2022-11-28T07:28:33.137Z,46.7
2022-11-28T07:29:40.501Z,44.4
2022-11-28T07:30:47.398Z,44.9
2022-11-28T07:31:54.688Z,46.2
2022-11-28T07:33:01.995Z,50.8
2022-11-28T07:34:09.150Z,46.1
2022-11-28T07:35:16.273Z,48.3
2022-11-28T07:36:23.462Z,46.8
2022-11-28T07:37:30.623Z,44
2022-11-28T07:38:37.785Z,47.9
2022-11-28T07:39:45.367Z,44.3
2022-11-28T07:40:52.114Z,46.7
2022-11-28T07:41:59.122Z,46
2022-11-28T07:43:06.197Z,47.6
2022-11-28T07:44:13.457Z,45.6
2022-11-28T07:45:20.526Z,48.4
2022-11-28T07:46:27.823Z,44.3
2022-11-28T07:47:34.931Z,46
2022-11-28T07:48:42.049Z,47.1
2022-11-28T07:49:49.254Z,47.9
2022-11-28T07:50:56.377Z,46.4
2022-11-28T07:52:03.391Z,48.4
2022-11-28T07:53:10.462Z,46.3
2022-11-28T07:54:17.574Z,45.5
2022-11-28T07:55:24.630Z,45.9
2022-11-28T07:56:56.963Z,47
2022-11-28T07:57:39.706Z,45.6
2022-11-28T07:58:46.759Z,49
2022-11-28T07:59:53.955Z,47.2
2022-11-28T08:01:00.874Z,46.6
2022-11-28T08:02:13.184Z,48.5
2022-11-28T08:03:20.186Z,46
2022-11-28T08:04:27.260Z,48.3
2022-11-28T08:05:34.334Z,47.6
2022-11-28T08:06:41.350Z,47.7
2022-11-28T08:07:48.516Z,45.2
2022-11-28T08:08:55.495Z,48.8
2022-11-28T08:10:02.617Z,48.1
2022-11-28T08:11:09.906Z,48.5
2022-11-28T08:12:16.870Z,45.9
2022-11-28T08:13:23.858Z,48.1
2022-11-28T08:14:30.862Z,49.1
2022-11-28T08:15:37.873Z,44
2022-11-28T08:16:45.088Z,45.7
2022-11-28T08:17:52.142Z,47.8
2022-11-28T08:18:59.135Z,47.6
2022-11-28T08:20:06.101Z,47.4
2022-11-28T08:21:13.258Z,48.4
2022-11-28T08:22:23.246Z,49.2
2022-11-28T08:23:30.266Z,49.2
2022-11-28T08:24:37.401Z,51
2022-11-28T08:25:44.543Z,47.8
2022-11-28T08:26:51.671Z,47.2
2022-11-28T08:27:58.642Z,51.6
2022-11-28T08:29:05.839Z,50.8
2022-11-28T08:30:12.853Z,49.3
2022-11-28T08:31:19.900Z,50.2
2022-11-28T08:32:27.898Z,55.3
2022-11-28T08:33:34.960Z,50.8
2022-11-28T08:34:42.345Z,52.5
2022-11-28T08:35:49.341Z,52.7
2022-11-28T08:36:56.242Z,53
2022-11-28T08:38:03.491Z,50.5
2022-11-28T08:39:25.953Z,50.5
2022-11-28T08:40:17.729Z,54.6
2022-11-28T08:41:24.852Z,52.6
2022-11-28T08:42:32.002Z,50.1
2022-11-28T08:43:39.303Z,53.5
2022-11-28T08:44:46.397Z,52.5
2022-11-28T08:45:53.579Z,51.6
2022-11-28T08:47:00.387Z,52.6
2022-11-28T08:48:07.536Z,56.1
2022-11-28T08:49:14.749Z,52.3
2022-11-28T08:50:22.056Z,52.7
2022-11-28T08:51:29.059Z,52.7
2022-11-28T08:52:36.135Z,54.8
2022-11-28T08:53:47.319Z,53.3
2022-11-28T08:54:50.478Z,53.1
2022-11-28T08:55:57.386Z,50.9
2022-11-28T08:57:04.730Z,54.4
2022-11-28T08:58:11.636Z,58.1
2022-11-28T08:59:18.889Z,54.9
2022-11-28T09:00:26.016Z,52.2
2022-11-28T09:01:33.220Z,56.1
2022-11-28T09:02:40.479Z,58.4
2022-11-28T09:03:47.773Z,54.9
2022-11-28T09:04:54.707Z,60.6
2022-11-28T09:06:01.636Z,55.1
2022-11-28T09:07:08.734Z,54.6
2022-11-28T09:08:15.783Z,55.3
2022-11-28T09:09:23.034Z,53.3
2022-11-28T09:10:30.131Z,56.3
2022-11-28T09:11:37.227Z,58.9
2022-11-28T09:12:44.227Z,56
2022-11-28T09:13:51.251Z,57.3
2022-11-28T09:14:58.400Z,54.7
2022-11-28T09:16:05.504Z,57.7
2022-11-28T09:17:12.625Z,56.6
2022-11-28T09:18:19.568Z,54.5
2022-11-28T09:19:26.583Z,55.4
2022-11-28T09:20:33.723Z,55.1
2022-11-28T09:21:41.185Z,53.2
2022-11-28T09:22:48.236Z,55.3
2022-11-28T09:23:55.289Z,52.9
2022-11-28T09:25:02.301Z,52.9
2022-11-28T09:26:09.690Z,56
2022-11-28T09:27:19.335Z,55
2022-11-28T09:28:26.499Z,56.2
2022-11-28T09:29:33.604Z,54.2
2022-11-28T09:30:40.717Z,55.3
2022-11-28T09:31:47.887Z,60.5
2022-11-28T09:32:54.780Z,57.4
2022-11-28T09:34:01.875Z,53.7
2022-11-28T09:35:08.911Z,61
2022-11-28T09:36:16.007Z,56.6
2022-11-28T09:37:22.987Z,58.1
2022-11-28T09:38:32.843Z,53.7
2022-11-28T09:39:57.235Z,55.4
2022-11-28T09:40:46.896Z,54.3
2022-11-28T09:41:53.883Z,54.6
2022-11-28T09:43:11.224Z,56.8
2022-11-28T09:44:23.423Z,51.6
2022-11-28T09:45:38.499Z,50.4
2022-11-28T09:46:45.753Z,51.8
2022-11-28T09:47:52.869Z,52.1
2022-11-28T09:49:07.870Z,50.6
2022-11-28T09:50:18.019Z,45.1
2022-11-28T09:51:35.830Z,51
2022-11-28T09:52:51.047Z,53.1
2022-11-28T09:54:08.535Z,48.8
2022-11-28T09:55:18.960Z,50.2
2022-11-28T09:56:33.759Z,44.8
2022-11-28T09:57:41.217Z,47
2022-11-28T09:58:51.183Z,44.2
2022-11-28T09:59:58.715Z,41.6
2022-11-28T10:01:06.133Z,43.7
2022-11-28T10:02:23.766Z,48.6
2022-11-28T10:03:37.087Z,44.3
2022-11-28T10:04:52.379Z,44.9
2022-11-28T10:06:02.516Z,45.2
2022-11-28T10:07:19.819Z,44.2
2022-11-28T10:08:31.846Z,43.5
2022-11-28T10:09:44.618Z,46.9
2022-11-28T10:11:01.694Z,47
2022-11-28T10:12:16.818Z,46.5
2022-11-28T10:13:36.522Z,43.9
2022-11-28T10:14:46.875Z,46.7
2022-11-28T10:16:04.627Z,43.7
2022-11-28T10:17:17.462Z,44.8
2022-11-28T10:18:32.618Z,43.5
2022-11-28T10:19:57.715Z,44.3
2022-11-28T10:20:54.482Z,44.8
2022-11-28T10:22:01.802Z,45.1
2022-11-28T10:23:08.856Z,44.7
2022-11-28T10:24:19.195Z,47.2
2022-11-28T10:25:27.327Z,44.5
2022-11-28T10:26:37.342Z,44.6
2022-11-28T10:27:44.166Z,41.7
2022-11-28T10:28:51.698Z,42.1
2022-11-28T10:29:59.019Z,41.7
2022-11-28T10:31:05.963Z,40.5
2022-11-28T10:32:22.034Z,43.4
2022-11-28T10:33:29.548Z,43.4
2022-11-28T10:34:44.444Z,41.3
2022-11-28T10:35:59.361Z,40.4
2022-11-28T10:37:06.760Z,42.5
2022-11-28T10:38:22.907Z,42.2
2022-11-28T10:39:29.798Z,40.7
2022-11-28T10:40:37.063Z,41.1
2022-11-28T10:41:49.572Z,41.8
2022-11-28T10:42:56.519Z,44.8
2022-11-28T10:44:06.991Z,41.4
2022-11-28T10:45:20.510Z,43.5
2022-11-28T10:46:32.979Z,43.2
2022-11-28T10:47:43.855Z,45.7
2022-11-28T10:48:58.694Z,42
2022-11-28T10:50:09.375Z,40.9
2022-11-28T10:51:18.755Z,37.5
2022-11-28T10:52:28.331Z,41.2
2022-11-28T10:53:38.710Z,43.9
2022-11-28T10:54:52.178Z,43.7
2022-11-28T10:56:11.153Z,41.3
2022-11-28T10:57:21.884Z,43.6
2022-11-28T10:58:34.066Z,42.6
2022-11-28T10:59:46.215Z,42.6
2022-11-28T11:00:58.381Z,41.9
2022-11-28T11:02:05.238Z,41.9
2022-11-28T11:03:20.462Z,41.6
2022-11-28T11:04:30.395Z,35.4
2022-11-28T11:05:37.525Z,35.1
2022-11-28T11:07:06.782Z,38.5
2022-11-28T11:07:59.794Z,37
2022-11-28T11:09:12.105Z,34.9
2022-11-28T11:10:19.371Z,34.8
2022-11-28T11:11:37.827Z,38.2
2022-11-28T11:12:45.046Z,35.8
2022-11-28T11:13:53.158Z,34.4
2022-11-28T11:15:05.213Z,34.3
2022-11-28T11:16:17.403Z,35.6
2022-11-28T11:17:24.326Z,34.8
2022-11-28T11:18:36.536Z,34.3
2022-11-28T11:19:46.020Z,33.9
2022-11-28T11:20:52.992Z,32.1
2022-11-28T11:22:10.240Z,29.8
2022-11-28T11:23:20.190Z,30.9
2022-11-28T11:24:27.347Z,31.3
2022-11-28T11:25:34.349Z,35.2
2022-11-28T11:26:41.290Z,33.3
2022-11-28T11:27:48.208Z,30
2022-11-28T11:28:55.132Z,28.3
2022-11-28T11:30:02.230Z,30.7
2022-11-28T11:31:19.487Z,28.6
2022-11-28T11:32:29.018Z,26.8
2022-11-28T11:33:36.075Z,31.2
2022-11-28T11:34:43.505Z,28.5
2022-11-28T11:35:50.639Z,34.7
2022-11-28T11:36:57.883Z,38.4
2022-11-28T11:38:15.206Z,43.8
2022-11-28T11:39:24.991Z,45.4
2022-11-28T11:40:32.036Z,45.9
2022-11-28T11:41:38.921Z,47.2
2022-11-28T11:42:45.838Z,47.6
2022-11-28T11:43:55.451Z,52.5
2022-11-28T11:45:12.742Z,50.2
2022-11-28T11:46:27.742Z,50.6
2022-11-28T11:47:34.742Z,51.2
2022-11-28T11:48:44.127Z,51
2022-11-28T11:49:51.047Z,52.2
2022-11-28T11:50:57.988Z,48
2022-11-28T11:52:04.922Z,44.4
2022-11-28T11:53:14.550Z,50.6
2022-11-28T11:54:21.431Z,50.2
2022-11-28T11:55:28.510Z,49.4
2022-11-28T11:56:35.444Z,46.9
2022-11-28T11:57:42.729Z,46.1
2022-11-28T11:58:50.187Z,46.1
2022-11-28T11:59:57.225Z,49.5
2022-11-28T12:01:13.231Z,47
2022-11-28T12:02:20.301Z,51.2
2022-11-28T12:03:32.441Z,47.6
2022-11-28T12:04:47.175Z,47.6
2022-11-28T12:06:13.069Z,52.4
2022-11-28T12:06:57.367Z,52.1
2022-11-28T12:08:04.432Z,54.6
2022-11-28T12:09:21.649Z,53
2022-11-28T12:10:38.966Z,49.4
2022-11-28T12:11:47.165Z,51.7
2022-11-28T12:12:52.961Z,49.1
2022-11-28T12:13:59.746Z,48.1
2022-11-28T12:15:06.681Z,49
2022-11-28T12:16:18.950Z,51.8
2022-11-28T12:17:48.147Z,47.4
2022-11-28T12:18:48.131Z,48.3
2022-11-28T12:20:03.277Z,50.5
2022-11-28T12:21:20.779Z,51
2022-11-28T12:22:38.191Z,48.4
2022-11-28T12:23:53.696Z,48.5
2022-11-28T12:25:05.867Z,46.7
2022-11-28T12:26:20.811Z,48
2022-11-28T12:27:30.473Z,49
2022-11-28T12:28:37.455Z,46.3
2022-11-28T12:29:50.543Z,48
2022-11-28T12:31:02.635Z,49.6
2022-11-28T12:32:14.967Z,45.3
2022-11-28T12:33:28.070Z,44.9
2022-11-28T12:34:42.957Z,41.4
2022-11-28T12:35:49.989Z,42.4
2022-11-28T12:37:02.571Z,34.4
2022-11-28T12:38:11.019Z,20.4
2022-11-28T12:39:21.497Z,17.1
2022-11-28T12:40:33.577Z,13.2
2022-11-28T12:41:45.570Z,16.7
2022-11-28T12:43:00.746Z,13.6
2022-11-28T12:44:12.967Z,15.3
2022-11-28T12:45:22.390Z,16.1
2022-11-28T12:46:34.505Z,15
2022-11-28T12:47:44.230Z,14.5
2022-11-28T12:48:56.575Z,12.7
2022-11-28T12:50:11.652Z,13.3
2022-11-28T12:51:28.945Z,13.5
2022-11-28T12:52:46.282Z,16.3
2022-11-28T12:54:03.643Z,13.6
2022-11-28T12:55:21.520Z,14.3
2022-11-28T12:56:36.343Z,14.5
2022-11-28T12:57:48.419Z,14.2
2022-11-28T12:59:00.527Z,13.9
2022-11-28T13:00:12.813Z,13.6
2022-11-28T13:01:25.065Z,12.3
2022-11-28T13:02:32.555Z,11.9
2022-11-28T13:03:42.284Z,13.3
2022-11-28T13:04:59.718Z,13.1
2022-11-28T13:06:09.810Z,12.2
2022-11-28T13:07:19.473Z,12.5
2022-11-28T13:08:34.650Z,13.6
2022-11-28T13:09:52.093Z,12.2
2022-11-28T13:11:04.318Z,10.8
2022-11-28T13:12:21.561Z,13
2022-11-28T13:13:37.154Z,12.8
2022-11-28T13:14:46.803Z,11.8
2022-11-28T13:15:58.976Z,13.5
2022-11-28T13:17:16.974Z,11.6
2022-11-28T13:18:23.961Z,12.8
2022-11-28T13:19:41.186Z,12.7
2022-11-28T13:20:53.282Z,13.9
2022-11-28T13:22:05.386Z,13.7
2022-11-28T13:23:17.511Z,14.1
2022-11-28T13:24:27.338Z,13.7
2022-11-28T13:25:44.639Z,15.6
2022-11-28T13:26:57.736Z,13.3
2022-11-28T13:28:12.734Z,13.8
2022-11-28T13:29:24.898Z,13.7
2022-11-28T13:30:37.785Z,13.5
2022-11-28T13:31:44.846Z,12.4
2022-11-28T13:32:57.074Z,14.1
2022-11-28T13:34:07.734Z,15.3
2022-11-28T13:35:15.126Z,15.4
2022-11-28T13:39:00.181Z,15
2022-11-28T13:39:58.898Z,13.7
2022-11-28T13:41:28.718Z,15.2
2022-11-28T13:42:52.663Z,15.6
2022-11-28T13:43:33.224Z,15.6
2022-11-28T13:44:50.506Z,14.1
2022-11-28T13:47:45.930Z,13.3
2022-11-28T13:49:21.728Z,13.7
2022-11-28T13:50:00.097Z,15.2
2022-11-28T13:51:19.936Z,14.5
2022-11-28T13:52:24.266Z,12.4
2022-11-28T13:53:31.182Z,13.2
2022-11-28T13:54:38.174Z,12.6
2022-11-28T13:55:46.071Z,13.8
2022-11-28T13:56:53.138Z,14.2
2022-11-28T13:58:10.347Z,15
2022-11-28T13:59:20.333Z,13.2
2022-11-28T14:00:27.760Z,12.5
2022-11-28T14:01:34.426Z,14.2
2022-11-28T14:02:46.667Z,15.1
2022-11-28T14:03:56.282Z,16
2022-11-28T14:05:12.361Z,14.4
2022-11-28T14:06:20.103Z,16.7
2022-11-28T14:07:35.465Z,13.1
2022-11-28T14:08:42.329Z,12.7
2022-11-28T14:09:49.257Z,15.7
2022-11-28T14:11:06.541Z,16.3
2022-11-28T14:12:18.810Z,14.7
2022-11-28T14:13:25.765Z,17.7
2022-11-28T14:14:37.932Z,15.3
2022-11-28T14:15:55.675Z,15.7
2022-11-28T14:17:05.493Z,15.3
2022-11-28T14:18:39.549Z,16.7
2022-11-28T14:19:30.011Z,15.7
2022-11-28T14:20:46.704Z,15.3
2022-11-28T14:21:56.305Z,15.9
2022-11-28T14:23:12.059Z,14.8
2022-11-28T14:24:24.316Z,16.6
2022-11-28T14:25:41.676Z,15.6
2022-11-28T14:26:48.884Z,16.9
2022-11-28T14:28:04.004Z,18.8
2022-11-28T14:29:11.081Z,15.2
2022-11-28T14:30:26.338Z,18.5
2022-11-28T14:31:34.017Z,15.3
2022-11-28T14:32:41.298Z,17
2022-11-28T14:33:48.269Z,16.3
2022-11-28T14:34:55.482Z,16.4
2022-11-28T14:36:02.934Z,16
2022-11-28T14:37:10.157Z,16.6
2022-11-28T14:38:22.709Z,16.5
2022-11-28T14:39:35.153Z,16.6
2022-11-28T14:40:42.285Z,17.1
2022-11-28T14:41:59.894Z,16.1
2022-11-28T14:43:09.865Z,16.3
2022-11-28T14:44:22.093Z,17.7
2022-11-28T14:45:34.281Z,15.3
2022-11-28T14:46:46.460Z,17.5
2022-11-28T14:48:03.977Z,20
2022-11-28T14:49:11.078Z,17.8
2022-11-28T14:50:18.207Z,20.7
2022-11-28T14:51:25.009Z,26.1
2022-11-28T14:52:42.297Z,24.4
2022-11-28T14:53:52.153Z,19.7
2022-11-28T14:54:59.206Z,17.5
2022-11-28T14:56:14.133Z,16.6
2022-11-28T14:57:23.561Z,16.8
2022-11-28T14:58:30.357Z,19.7
2022-11-28T14:59:37.228Z,16.1
2022-11-28T15:00:44.084Z,20.4
2022-11-28T15:01:54.441Z,19.4
2022-11-28T15:03:09.171Z,21.6
2022-11-28T15:04:26.385Z,23.9
2022-11-28T15:05:41.089Z,24.4
2022-11-28T15:06:53.689Z,27.3
2022-11-28T15:08:00.989Z,27.6
2022-11-28T15:09:18.320Z,25.8
2022-11-28T15:10:33.161Z,23.7
2022-11-28T15:11:48.064Z,22.9
2022-11-28T15:13:00.114Z,22.7
2022-11-28T15:14:12.436Z,21.9
2022-11-28T15:15:25.294Z,20
2022-11-28T15:16:32.795Z,21.2
2022-11-28T15:17:39.714Z,22.7
2022-11-28T15:18:47.146Z,23.2
2022-11-28T15:19:53.964Z,21.5
2022-11-28T15:21:00.835Z,20.8
2022-11-28T15:22:07.885Z,23.9
2022-11-28T15:23:25.161Z,22.3
2022-11-28T15:24:32.110Z,21.4
2022-11-28T15:25:39.891Z,22.3
2022-11-28T15:26:47.269Z,21.5
2022-11-28T15:27:56.941Z,23.2
2022-11-28T15:29:14.389Z,22.5
2022-11-28T15:30:28.283Z,21.8
2022-11-28T15:31:36.963Z,22.1
2022-11-28T15:32:44.308Z,22.1